sensor_id;sensor_type;location;lat;lon;timestamp;temperature;humidity
7942;HTU21D;4016;50.758;7.150;2022-10-22T00:01:58;12.77;118.99
7942;HTU21D;4016;50.758;7.150;2022-10-22T00:06:58;13.40;118.99
7942;HTU21D;4016;50.758;7.150;2022-10-22T00:11:59;13.02;118.99
7942;HTU21D;4016;50.758;7.150;2022-10-22T00:16:59;13.07;118.99
7942;HTU21D;4016;50.758;7.150;2022-10-22T00:22:00;13.20;118.99
7942;HTU21D;4016;50.758;7.150;2022-10-22T00:27:06;13.11;118.99
7942;HTU21D;4016;50.758;7.150;2022-10-22T00:32:06;13.22;118.99
7942;HTU21D;4016;50.758;7.150;2022-10-22T00:37:07;13.18;118.99
7942;HTU21D;4016;50.758;7.150;2022-10-22T00:42:12;13.20;118.99
7942;HTU21D;4016;50.758;7.150;2022-10-22T00:47:17;13.23;118.99
7942;HTU21D;4016;50.758;7.150;2022-10-22T00:52:18;13.21;118.99
7942;HTU21D;4016;50.758;7.150;2022-10-22T00:57:20;13.22;118.99
7942;HTU21D;4016;50.758;7.150;2022-10-22T01:02:21;13.21;118.99
7942;HTU21D;4016;50.758;7.150;2022-10-22T01:07:23;13.20;118.99
7942;HTU21D;4016;50.758;7.150;2022-10-22T01:12:34;13.17;118.99
7942;HTU21D;4016;50.758;7.150;2022-10-22T01:29:09;13.09;118.99
7942;HTU21D;4016;50.758;7.150;2022-10-22T01:34:12;13.12;118.99
7942;HTU21D;4016;50.758;7.150;2022-10-22T01:39:14;13.04;118.99
7942;HTU21D;4016;50.758;7.150;2022-10-22T01:44:29;12.99;118.99
7942;HTU21D;4016;50.758;7.150;2022-10-22T01:55:01;12.99;118.99
7942;HTU21D;4016;50.758;7.150;2022-10-22T02:00:04;12.99;118.99
7942;HTU21D;4016;50.758;7.150;2022-10-22T02:10:11;13.06;118.99
7942;HTU21D;4016;50.758;7.150;2022-10-22T02:15:14;13.00;118.99
7942;HTU21D;4016;50.758;7.150;2022-10-22T02:20:19;12.95;118.99
7942;HTU21D;4016;50.758;7.150;2022-10-22T02:25:24;12.95;118.99
7942;HTU21D;4016;50.758;7.150;2022-10-22T02:30:25;12.91;118.99
7942;HTU21D;4016;50.758;7.150;2022-10-22T02:35:26;13.00;118.99
7942;HTU21D;4016;50.758;7.150;2022-10-22T02:40:29;13.00;118.99
7942;HTU21D;4016;50.758;7.150;2022-10-22T02:45:30;12.91;118.99
7942;HTU21D;4016;50.758;7.150;2022-10-22T02:50:31;12.90;118.99
7942;HTU21D;4016;50.758;7.150;2022-10-22T02:55:31;12.87;118.99
7942;HTU21D;4016;50.758;7.150;2022-10-22T03:00:32;12.82;118.99
7942;HTU21D;4016;50.758;7.150;2022-10-22T03:05:32;12.82;118.99
7942;HTU21D;4016;50.758;7.150;2022-10-22T03:10:32;12.82;118.99
7942;HTU21D;4016;50.758;7.150;2022-10-22T03:15:33;12.82;118.99
7942;HTU21D;4016;50.758;7.150;2022-10-22T03:20:33;12.82;118.99
7942;HTU21D;4016;50.758;7.150;2022-10-22T03:25:34;12.87;118.99
7942;HTU21D;4016;50.758;7.150;2022-10-22T03:30:35;12.89;118.99
7942;HTU21D;4016;50.758;7.150;2022-10-22T03:35:41;12.89;118.99
7942;HTU21D;4016;50.758;7.150;2022-10-22T03:40:44;12.90;118.99
7942;HTU21D;4016;50.758;7.150;2022-10-22T03:45:45;12.85;118.99
7942;HTU21D;4016;50.758;7.150;2022-10-22T03:50:45;12.80;118.99
7942;HTU21D;4016;50.758;7.150;2022-10-22T03:55:46;12.72;118.99
7942;HTU21D;4016;50.758;7.150;2022-10-22T04:00:46;12.63;118.99
7942;HTU21D;4016;50.758;7.150;2022-10-22T04:05:46;12.57;118.99
7942;HTU21D;4016;50.758;7.150;2022-10-22T04:10:50;12.49;118.99
7942;HTU21D;4016;50.758;7.150;2022-10-22T04:15:51;12.47;118.99
7942;HTU21D;4016;50.758;7.150;2022-10-22T04:20:51;12.48;118.99
7942;HTU21D;4016;50.758;7.150;2022-10-22T04:25:59;12.44;118.99
7942;HTU21D;4016;50.758;7.150;2022-10-22T04:31:06;12.33;118.99
7942;HTU21D;4016;50.758;7.150;2022-10-22T04:36:09;12.23;118.99
7942;HTU21D;4016;50.758;7.150;2022-10-22T04:41:19;12.12;118.99
7942;HTU21D;4016;50.758;7.150;2022-10-22T04:46:19;12.04;118.99
7942;HTU21D;4016;50.758;7.150;2022-10-22T04:51:22;11.88;118.99
7942;HTU21D;4016;50.758;7.150;2022-10-22T04:56:26;11.77;118.99
7942;HTU21D;4016;50.758;7.150;2022-10-22T05:01:29;11.69;118.99
7942;HTU21D;4016;50.758;7.150;2022-10-22T05:06:31;11.59;118.99
7942;HTU21D;4016;50.758;7.150;2022-10-22T05:11:34;11.51;118.99
7942;HTU21D;4016;50.758;7.150;2022-10-22T05:16:34;11.42;118.99
7942;HTU21D;4016;50.758;7.150;2022-10-22T05:21:37;11.32;118.99
7942;HTU21D;4016;50.758;7.150;2022-10-22T05:26:37;11.25;118.99
7942;HTU21D;4016;50.758;7.150;2022-10-22T05:31:37;11.19;118.99
7942;HTU21D;4016;50.758;7.150;2022-10-22T05:36:38;11.13;118.99
7942;HTU21D;4016;50.758;7.150;2022-10-22T05:41:38;11.09;118.99
7942;HTU21D;4016;50.758;7.150;2022-10-22T05:46:39;11.05;118.99
7942;HTU21D;4016;50.758;7.150;2022-10-22T05:51:40;11.01;118.99
7942;HTU21D;4016;50.758;7.150;2022-10-22T05:56:40;11.02;118.99
7942;HTU21D;4016;50.758;7.150;2022-10-22T06:01:40;11.07;118.99
7942;HTU21D;4016;50.758;7.150;2022-10-22T06:06:43;11.05;118.99
7942;HTU21D;4016;50.758;7.150;2022-10-22T06:11:45;11.16;118.99
7942;HTU21D;4016;50.758;7.150;2022-10-22T06:16:46;11.13;118.99
7942;HTU21D;4016;50.758;7.150;2022-10-22T06:21:47;11.11;118.99
7942;HTU21D;4016;50.758;7.150;2022-10-22T06:26:51;11.14;118.99
7942;HTU21D;4016;50.758;7.150;2022-10-22T06:31:51;11.20;118.99
7942;HTU21D;4016;50.758;7.150;2022-10-22T06:36:52;11.37;118.99
7942;HTU21D;4016;50.758;7.150;2022-10-22T06:41:52;11.61;118.99
7942;HTU21D;4016;50.758;7.150;2022-10-22T06:46:52;11.83;118.99
7942;HTU21D;4016;50.758;7.150;2022-10-22T06:51:53;12.00;118.99
7942;HTU21D;4016;50.758;7.150;2022-10-22T06:56:54;12.23;118.99
7942;HTU21D;4016;50.758;7.150;2022-10-22T07:01:54;12.48;118.99
7942;HTU21D;4016;50.758;7.150;2022-10-22T07:06:54;12.66;118.99
7942;HTU21D;4016;50.758;7.150;2022-10-22T07:11:55;12.80;118.99
7942;HTU21D;4016;50.758;7.150;2022-10-22T07:16:55;12.92;118.99
7942;HTU21D;4016;50.758;7.150;2022-10-22T07:21:56;13.00;118.99
7942;HTU21D;4016;50.758;7.150;2022-10-22T07:26:56;13.10;118.99
7942;HTU21D;4016;50.758;7.150;2022-10-22T07:31:57;13.18;118.99
7942;HTU21D;4016;50.758;7.150;2022-10-22T07:36:57;13.27;118.99
7942;HTU21D;4016;50.758;7.150;2022-10-22T07:41:58;13.44;118.99
7942;HTU21D;4016;50.758;7.150;2022-10-22T07:46:58;13.60;118.99
7942;HTU21D;4016;50.758;7.150;2022-10-22T07:51:59;13.89;118.99
7942;HTU21D;4016;50.758;7.150;2022-10-22T07:56:59;14.27;118.99
7942;HTU21D;4016;50.758;7.150;2022-10-22T08:02:00;14.54;118.99
7942;HTU21D;4016;50.758;7.150;2022-10-22T08:07:00;14.71;118.99
7942;HTU21D;4016;50.758;7.150;2022-10-22T08:12:00;14.80;118.99
7942;HTU21D;4016;50.758;7.150;2022-10-22T08:17:01;14.95;118.99
7942;HTU21D;4016;50.758;7.150;2022-10-22T08:22:01;15.13;118.99
7942;HTU21D;4016;50.758;7.150;2022-10-22T08:27:02;15.38;118.99
7942;HTU21D;4016;50.758;7.150;2022-10-22T08:32:02;15.57;118.99
7942;HTU21D;4016;50.758;7.150;2022-10-22T08:37:03;15.71;118.99
7942;HTU21D;4016;50.758;7.150;2022-10-22T08:48:02;16.19;118.69
7942;HTU21D;4016;50.758;7.150;2022-10-22T08:53:15;16.24;118.83
7942;HTU21D;4016;50.758;7.150;2022-10-22T08:58:28;16.26;118.63
7942;HTU21D;4016;50.758;7.150;2022-10-22T09:08:45;16.39;115.58
7942;HTU21D;4016;50.758;7.150;2022-10-22T09:13:47;16.32;116.91
7942;HTU21D;4016;50.758;7.150;2022-10-22T09:24:34;16.39;115.09
7942;HTU21D;4016;50.758;7.150;2022-10-22T09:29:36;16.39;115.95
7942;HTU21D;4016;50.758;7.150;2022-10-22T09:34:36;16.43;116.09
7942;HTU21D;4016;50.758;7.150;2022-10-22T09:39:45;16.43;116.88
7942;HTU21D;4016;50.758;7.150;2022-10-22T09:44:58;16.47;116.09
7942;HTU21D;4016;50.758;7.150;2022-10-22T09:55:38;16.64;115.00
7942;HTU21D;4016;50.758;7.150;2022-10-22T10:00:42;16.78;115.20
7942;HTU21D;4016;50.758;7.150;2022-10-22T10:05:46;16.92;114.67
7942;HTU21D;4016;50.758;7.150;2022-10-22T10:10:50;17.14;112.19
7942;HTU21D;4016;50.758;7.150;2022-10-22T10:15:57;17.31;110.89
7942;HTU21D;4016;50.758;7.150;2022-10-22T10:21:17;17.43;112.21
7942;HTU21D;4016;50.758;7.150;2022-10-22T10:26:33;17.50;109.62
7942;HTU21D;4016;50.758;7.150;2022-10-22T10:37:23;17.90;108.17
7942;HTU21D;4016;50.758;7.150;2022-10-22T10:42:40;18.12;105.13
7942;HTU21D;4016;50.758;7.150;2022-10-22T11:03:38;18.43;98.80
7942;HTU21D;4016;50.758;7.150;2022-10-22T11:08:43;18.44;99.51
7942;HTU21D;4016;50.758;7.150;2022-10-22T11:14:20;18.42;99.95
7942;HTU21D;4016;50.758;7.150;2022-10-22T11:19:37;18.46;96.01
7942;HTU21D;4016;50.758;7.150;2022-10-22T11:24:48;18.42;96.35
7942;HTU21D;4016;50.758;7.150;2022-10-22T11:30:00;18.48;99.69
7942;HTU21D;4016;50.758;7.150;2022-10-22T11:35:03;18.51;97.08
7942;HTU21D;4016;50.758;7.150;2022-10-22T11:40:18;18.67;97.18
7942;HTU21D;4016;50.758;7.150;2022-10-22T11:55:51;18.62;95.61
7942;HTU21D;4016;50.758;7.150;2022-10-22T12:00:52;18.52;98.54
7942;HTU21D;4016;50.758;7.150;2022-10-22T12:06:24;18.39;100.28
7942;HTU21D;4016;50.758;7.150;2022-10-22T12:11:37;18.40;97.46
7942;HTU21D;4016;50.758;7.150;2022-10-22T12:16:43;18.52;97.88
7942;HTU21D;4016;50.758;7.150;2022-10-22T12:21:48;18.61;94.63
7942;HTU21D;4016;50.758;7.150;2022-10-22T12:26:50;18.73;95.81
7942;HTU21D;4016;50.758;7.150;2022-10-22T12:31:51;18.65;95.14
7942;HTU21D;4016;50.758;7.150;2022-10-22T12:36:52;18.85;96.66
7942;HTU21D;4016;50.758;7.150;2022-10-22T12:41:53;19.29;93.47
7942;HTU21D;4016;50.758;7.150;2022-10-22T12:46:53;19.44;89.71
7942;HTU21D;4016;50.758;7.150;2022-10-22T12:51:54;19.85;85.93
7942;HTU21D;4016;50.758;7.150;2022-10-22T12:56:55;20.10;84.14
7942;HTU21D;4016;50.758;7.150;2022-10-22T13:01:56;20.20;80.14
7942;HTU21D;4016;50.758;7.150;2022-10-22T13:12:04;20.47;79.59
7942;HTU21D;4016;50.758;7.150;2022-10-22T13:27:27;20.61;78.55
7942;HTU21D;4016;50.758;7.150;2022-10-22T13:32:30;20.57;77.72
7942;HTU21D;4016;50.758;7.150;2022-10-22T13:37:32;20.81;77.31
7942;HTU21D;4016;50.758;7.150;2022-10-22T13:42:33;21.10;75.12
7942;HTU21D;4016;50.758;7.150;2022-10-22T13:47:33;21.00;76.89
7942;HTU21D;4016;50.758;7.150;2022-10-22T13:52:37;21.16;79.42
7942;HTU21D;4016;50.758;7.150;2022-10-22T13:57:38;21.25;75.21
7942;HTU21D;4016;50.758;7.150;2022-10-22T14:02:39;21.25;76.93
7942;HTU21D;4016;50.758;7.150;2022-10-22T14:07:40;21.28;75.21
7942;HTU21D;4016;50.758;7.150;2022-10-22T14:12:41;21.18;75.74
7942;HTU21D;4016;50.758;7.150;2022-10-22T14:17:44;21.07;74.92
7942;HTU21D;4016;50.758;7.150;2022-10-22T14:22:46;20.83;76.11
7942;HTU21D;4016;50.758;7.150;2022-10-22T14:27:47;20.49;77.30
7942;HTU21D;4016;50.758;7.150;2022-10-22T14:32:48;20.35;78.50
7942;HTU21D;4016;50.758;7.150;2022-10-22T14:37:49;20.33;80.65
7942;HTU21D;4016;50.758;7.150;2022-10-22T14:42:49;20.28;83.40
7942;HTU21D;4016;50.758;7.150;2022-10-22T14:47:55;20.19;83.58
7942;HTU21D;4016;50.758;7.150;2022-10-22T14:52:56;20.15;85.06
7942;HTU21D;4016;50.758;7.150;2022-10-22T14:57:59;20.12;84.12
7942;HTU21D;4016;50.758;7.150;2022-10-22T15:02:59;20.13;84.66
7942;HTU21D;4016;50.758;7.150;2022-10-22T15:08:00;20.04;86.90
7942;HTU21D;4016;50.758;7.150;2022-10-22T15:13:00;19.89;88.35
7942;HTU21D;4016;50.758;7.150;2022-10-22T15:18:01;19.79;91.09
7942;HTU21D;4016;50.758;7.150;2022-10-22T15:23:01;19.61;91.95
7942;HTU21D;4016;50.758;7.150;2022-10-22T15:28:01;19.47;93.38
7942;HTU21D;4016;50.758;7.150;2022-10-22T15:33:02;19.37;94.74
7942;HTU21D;4016;50.758;7.150;2022-10-22T15:38:02;19.24;96.69
7942;HTU21D;4016;50.758;7.150;2022-10-22T15:43:05;19.08;97.60
7942;HTU21D;4016;50.758;7.150;2022-10-22T15:48:06;18.89;97.95
7942;HTU21D;4016;50.758;7.150;2022-10-22T15:53:06;18.74;99.24
7942;HTU21D;4016;50.758;7.150;2022-10-22T15:58:06;18.61;101.23
7942;HTU21D;4016;50.758;7.150;2022-10-22T16:03:07;18.49;104.51
7942;HTU21D;4016;50.758;7.150;2022-10-22T16:08:07;18.37;106.54
7942;HTU21D;4016;50.758;7.150;2022-10-22T16:13:07;18.21;106.45
7942;HTU21D;4016;50.758;7.150;2022-10-22T16:18:08;18.05;107.99
7942;HTU21D;4016;50.758;7.150;2022-10-22T16:23:08;17.87;109.36
7942;HTU21D;4016;50.758;7.150;2022-10-22T16:28:10;17.72;110.71
7942;HTU21D;4016;50.758;7.150;2022-10-22T16:33:11;17.53;111.68
7942;HTU21D;4016;50.758;7.150;2022-10-22T16:38:11;17.35;112.40
7942;HTU21D;4016;50.758;7.150;2022-10-22T16:43:11;17.29;111.61
7942;HTU21D;4016;50.758;7.150;2022-10-22T16:48:12;17.00;113.34
7942;HTU21D;4016;50.758;7.150;2022-10-22T16:53:12;16.82;114.69
7942;HTU21D;4016;50.758;7.150;2022-10-22T16:58:12;16.64;115.35
7942;HTU21D;4016;50.758;7.150;2022-10-22T17:03:13;16.50;116.11
7942;HTU21D;4016;50.758;7.150;2022-10-22T17:08:13;16.34;116.54
7942;HTU21D;4016;50.758;7.150;2022-10-22T17:13:14;16.15;117.42
7942;HTU21D;4016;50.758;7.150;2022-10-22T17:18:14;15.95;118.07
7942;HTU21D;4016;50.758;7.150;2022-10-22T17:23:14;15.77;118.74
7942;HTU21D;4016;50.758;7.150;2022-10-22T17:28:15;15.62;118.99
7942;HTU21D;4016;50.758;7.150;2022-10-22T17:33:15;15.44;118.99
7942;HTU21D;4016;50.758;7.150;2022-10-22T17:38:15;15.24;118.99
7942;HTU21D;4016;50.758;7.150;2022-10-22T17:43:16;15.04;118.99
7942;HTU21D;4016;50.758;7.150;2022-10-22T17:48:16;14.92;118.99
7942;HTU21D;4016;50.758;7.150;2022-10-22T17:53:17;14.78;118.99
7942;HTU21D;4016;50.758;7.150;2022-10-22T17:58:17;14.65;118.99
7942;HTU21D;4016;50.758;7.150;2022-10-22T18:03:17;14.53;118.99
7942;HTU21D;4016;50.758;7.150;2022-10-22T18:08:18;14.42;118.99
7942;HTU21D;4016;50.758;7.150;2022-10-22T18:13:19;14.30;118.99
7942;HTU21D;4016;50.758;7.150;2022-10-22T18:18:21;14.17;118.99
7942;HTU21D;4016;50.758;7.150;2022-10-22T18:23:21;14.04;118.99
7942;HTU21D;4016;50.758;7.150;2022-10-22T18:28:21;14.05;118.99
7942;HTU21D;4016;50.758;7.150;2022-10-22T18:33:22;13.93;118.99
7942;HTU21D;4016;50.758;7.150;2022-10-22T18:38:24;13.92;118.99
7942;HTU21D;4016;50.758;7.150;2022-10-22T18:43:24;13.98;118.99
7942;HTU21D;4016;50.758;7.150;2022-10-22T18:48:25;14.08;118.99
7942;HTU21D;4016;50.758;7.150;2022-10-22T18:53:25;14.10;118.99
7942;HTU21D;4016;50.758;7.150;2022-10-22T18:58:25;14.06;118.99
7942;HTU21D;4016;50.758;7.150;2022-10-22T19:03:26;13.93;118.99
7942;HTU21D;4016;50.758;7.150;2022-10-22T19:08:26;13.82;118.99
7942;HTU21D;4016;50.758;7.150;2022-10-22T19:13:26;13.69;118.99
7942;HTU21D;4016;50.758;7.150;2022-10-22T19:18:27;13.65;118.99
7942;HTU21D;4016;50.758;7.150;2022-10-22T19:23:28;13.54;118.99
7942;HTU21D;4016;50.758;7.150;2022-10-22T19:28:29;13.41;118.99
7942;HTU21D;4016;50.758;7.150;2022-10-22T19:33:30;13.35;118.99
7942;HTU21D;4016;50.758;7.150;2022-10-22T19:38:30;13.30;118.99
7942;HTU21D;4016;50.758;7.150;2022-10-22T19:43:31;13.21;118.99
7942;HTU21D;4016;50.758;7.150;2022-10-22T19:48:31;13.15;118.99
7942;HTU21D;4016;50.758;7.150;2022-10-22T19:53:32;13.03;118.99
7942;HTU21D;4016;50.758;7.150;2022-10-22T19:58:33;12.93;118.99
7942;HTU21D;4016;50.758;7.150;2022-10-22T20:03:35;12.85;118.99
7942;HTU21D;4016;50.758;7.150;2022-10-22T20:08:36;12.86;118.99
7942;HTU21D;4016;50.758;7.150;2022-10-22T20:13:37;12.94;118.99
7942;HTU21D;4016;50.758;7.150;2022-10-22T20:18:37;12.78;118.99
7942;HTU21D;4016;50.758;7.150;2022-10-22T20:23:38;12.74;118.99
7942;HTU21D;4016;50.758;7.150;2022-10-22T20:28:38;12.74;118.99
7942;HTU21D;4016;50.758;7.150;2022-10-22T20:33:39;12.67;118.99
7942;HTU21D;4016;50.758;7.150;2022-10-22T20:38:39;12.63;118.99
7942;HTU21D;4016;50.758;7.150;2022-10-22T20:43:42;12.59;118.99
7942;HTU21D;4016;50.758;7.150;2022-10-22T20:48:43;12.53;118.99
7942;HTU21D;4016;50.758;7.150;2022-10-22T20:53:44;12.48;118.99
7942;HTU21D;4016;50.758;7.150;2022-10-22T20:58:45;12.53;118.99
7942;HTU21D;4016;50.758;7.150;2022-10-22T21:03:50;12.57;118.99
7942;HTU21D;4016;50.758;7.150;2022-10-22T21:08:51;12.44;118.99
7942;HTU21D;4016;50.758;7.150;2022-10-22T21:13:51;12.38;118.99
7942;HTU21D;4016;50.758;7.150;2022-10-22T21:18:51;12.43;118.99
7942;HTU21D;4016;50.758;7.150;2022-10-22T21:23:52;12.45;118.99
7942;HTU21D;4016;50.758;7.150;2022-10-22T21:28:52;12.38;118.99
7942;HTU21D;4016;50.758;7.150;2022-10-22T21:33:53;12.28;118.99
7942;HTU21D;4016;50.758;7.150;2022-10-22T21:38:53;12.20;118.99
7942;HTU21D;4016;50.758;7.150;2022-10-22T21:43:54;12.13;118.99
7942;HTU21D;4016;50.758;7.150;2022-10-22T21:48:56;12.08;118.99
7942;HTU21D;4016;50.758;7.150;2022-10-22T21:53:58;12.01;118.99
7942;HTU21D;4016;50.758;7.150;2022-10-22T21:58:59;12.01;118.99
7942;HTU21D;4016;50.758;7.150;2022-10-22T22:04:01;11.90;118.99
7942;HTU21D;4016;50.758;7.150;2022-10-22T22:09:03;11.85;118.99
7942;HTU21D;4016;50.758;7.150;2022-10-22T22:14:03;11.76;118.99
7942;HTU21D;4016;50.758;7.150;2022-10-22T22:19:06;11.71;118.99
7942;HTU21D;4016;50.758;7.150;2022-10-22T22:24:08;11.67;118.99
7942;HTU21D;4016;50.758;7.150;2022-10-22T22:29:10;11.64;118.99
7942;HTU21D;4016;50.758;7.150;2022-10-22T22:34:13;11.59;118.99
7942;HTU21D;4016;50.758;7.150;2022-10-22T22:39:18;11.75;118.99
7942;HTU21D;4016;50.758;7.150;2022-10-22T22:44:19;11.68;118.99
7942;HTU21D;4016;50.758;7.150;2022-10-22T22:49:19;11.55;118.99
7942;HTU21D;4016;50.758;7.150;2022-10-22T22:54:20;11.45;118.99
7942;HTU21D;4016;50.758;7.150;2022-10-22T22:59:20;11.38;118.99
7942;HTU21D;4016;50.758;7.150;2022-10-22T23:04:21;11.32;118.99
7942;HTU21D;4016;50.758;7.150;2022-10-22T23:09:24;11.32;118.99
7942;HTU21D;4016;50.758;7.150;2022-10-22T23:14:24;11.22;118.99
7942;HTU21D;4016;50.758;7.150;2022-10-22T23:19:25;11.12;118.99
7942;HTU21D;4016;50.758;7.150;2022-10-22T23:24:27;11.07;118.99
7942;HTU21D;4016;50.758;7.150;2022-10-22T23:29:29;11.02;118.99
7942;HTU21D;4016;50.758;7.150;2022-10-22T23:34:30;10.93;118.99
7942;HTU21D;4016;50.758;7.150;2022-10-22T23:39:31;11.24;118.99
7942;HTU21D;4016;50.758;7.150;2022-10-22T23:44:31;10.98;118.99
7942;HTU21D;4016;50.758;7.150;2022-10-22T23:49:32;10.84;118.99
7942;HTU21D;4016;50.758;7.150;2022-10-22T23:54:32;10.82;118.99
7942;HTU21D;4016;50.758;7.150;2022-10-22T23:59:32;10.70;118.99
